.
WxDataArchive / Data Records for 2010-08-13
2010-08-12 August 2010 2010-08-14

Data Records for Friday, 13 August 2010

Time	Temp	Chill	HIndex	Humid	Dewpt	 Wind 	HiWind	WindDir	Rain 	Barom 
-----	----	-----	------	-----	-----	------	------	-------	-----	----- 
00:00	74.4	74.4	74.4	87	70.3	0	0	---	0.00	29.830 
00:05	74.2	74.2	74.2	87	70.1	0	0	---	0.00	29.830 
00:10	74.0	74.0	74.0	87	69.9	0	1	90	0.00	29.830 
00:15	73.9	73.9	73.9	87	69.8	0	0	---	0.00	29.832 
00:20	73.7	73.7	73.7	88	69.9	0	0	---	0.00	29.832 
00:25	73.7	73.7	73.7	88	69.9	0	0	---	0.00	29.832 
00:30	73.5	73.5	73.5	88	69.7	0	0	---	0.00	29.831 
00:35	73.3	73.3	73.3	88	69.5	0	0	---	0.00	29.831 
00:40	73.3	73.3	73.3	89	69.9	0	0	---	0.00	29.831 
00:45	73.3	73.3	73.3	89	69.9	0	0	---	0.00	29.832 
00:50	73.2	73.2	73.2	89	69.8	0	0	---	0.00	29.832 
00:55	73.2	73.2	73.2	89	69.8	0	0	---	0.00	29.832 
01:00	73.0	73.0	73.0	89	69.6	0	0	---	0.00	29.833 
01:05	72.8	72.8	72.8	89	69.4	0	0	---	0.00	29.833 
01:10	72.7	72.7	72.7	89	69.3	0	0	---	0.00	29.833 
01:15	72.5	72.5	72.5	89	69.1	0	0	---	0.00	29.830 
01:20	72.3	72.3	72.3	90	69.2	0	0	---	0.00	29.830 
01:25	72.1	72.1	72.1	90	69.0	0	0	---	0.00	29.830 
01:30	72.1	72.1	72.1	90	69.0	0	0	---	0.00	29.835 
01:35	72.0	72.0	72.0	91	69.2	0	0	---	0.00	29.835 
01:40	72.0	72.0	72.0	91	69.2	0	0	---	0.00	29.835 
01:45	71.8	71.8	71.8	91	69.0	0	0	---	0.00	29.834 
01:50	71.6	71.6	71.6	91	68.8	0	0	---	0.00	29.834 
01:55	71.6	71.6	71.6	92	69.1	0	0	---	0.00	29.834 
02:00	71.5	71.5	71.5	92	69.0	0	0	---	0.00	29.829 
02:05	71.5	71.5	71.5	92	69.0	0	0	---	0.00	29.829 
02:10	71.3	71.3	71.3	92	68.8	0	0	---	0.00	29.829 
02:15	71.1	71.1	71.1	92	68.7	0	0	---	0.00	29.827 
02:20	71.1	71.1	71.1	92	68.7	0	0	---	0.00	29.827 
02:25	70.9	70.9	70.9	92	68.5	0	0	---	0.00	29.827 
02:30	70.8	70.8	70.8	93	68.7	0	0	---	0.00	29.828 
02:35	70.6	70.6	70.6	93	68.5	0	0	---	0.00	29.828 
02:40	70.6	70.6	70.6	93	68.5	0	0	---	0.00	29.828 
02:45	70.4	70.4	70.4	93	68.3	0	0	---	0.00	29.829 
02:50	70.3	70.3	70.3	93	68.2	0	0	---	0.00	29.829 
02:55	70.3	70.3	70.3	93	68.2	0	0	---	0.00	29.829 
03:00	70.3	70.3	70.3	93	68.2	0	0	---	0.00	29.823 
03:05	70.3	70.3	70.3	93	68.2	0	0	---	0.00	29.823 
03:10	70.1	70.1	70.1	93	68.0	0	0	---	0.00	29.823 
03:15	69.9	69.9	69.9	94	68.1	0	0	---	0.00	29.816 
03:20	69.9	69.9	69.9	94	68.1	0	0	---	0.00	29.816 
03:25	69.9	69.9	69.9	94	68.1	0	0	---	0.00	29.816 
03:30	69.8	69.8	69.8	94	68.0	0	0	---	0.00	29.822 
03:35	69.6	69.6	69.6	94	67.8	0	0	---	0.00	29.822 
03:40	69.6	69.6	69.6	94	67.8	0	0	---	0.00	29.822 
03:45	69.4	69.4	69.4	94	67.6	0	0	---	0.00	29.824 
03:50	69.4	69.4	69.4	94	67.6	0	0	---	0.00	29.824 
03:55	69.4	69.4	69.4	94	67.6	0	0	---	0.00	29.824 
04:00	69.3	69.3	69.3	94	67.5	0	0	---	0.00	29.820 
04:05	69.3	69.3	69.3	94	67.5	0	0	---	0.00	29.820 
04:10	69.1	69.1	69.1	94	67.3	0	0	---	0.00	29.820 
04:15	69.1	69.1	69.1	94	67.3	0	0	---	0.00	29.824 
04:20	68.9	68.9	68.9	94	67.1	0	0	---	0.00	29.824 
04:25	68.9	68.9	68.9	95	67.4	0	0	---	0.00	29.824 
04:30	68.9	68.9	68.9	94	67.1	0	0	---	0.00	29.821 
04:35	68.8	68.8	68.8	95	67.3	0	0	---	0.00	29.821 
04:40	68.8	68.8	68.8	95	67.3	0	0	---	0.00	29.821 
04:45	68.8	68.8	68.8	95	67.3	0	0	---	0.00	29.821 
04:50	68.6	68.6	68.6	95	67.1	0	0	---	0.00	29.821 
04:55	68.6	68.6	68.6	95	67.1	0	0	---	0.00	29.821 
05:00	68.6	68.6	68.6	95	67.1	0	0	---	0.00	29.828 
05:05	68.6	68.6	68.6	95	67.1	0	0	---	0.00	29.828 
05:10	68.6	68.6	68.6	95	67.1	0	0	---	0.00	29.828 
05:15	68.6	68.6	68.6	95	67.1	0	0	---	0.00	29.831 
05:20	68.4	68.4	68.4	95	66.9	0	0	---	0.00	29.831 
05:25	68.4	68.4	68.4	95	66.9	0	0	---	0.00	29.831 
05:30	68.4	68.4	68.4	95	66.9	0	0	---	0.00	29.834 
05:35	68.4	68.4	68.4	95	66.9	0	0	---	0.00	29.834 
05:40	68.4	68.4	68.4	95	66.9	0	0	---	0.00	29.834 
05:45	68.4	68.4	68.4	95	66.9	0	0	---	0.00	29.836 
05:50	68.4	68.4	68.4	95	66.9	0	0	---	0.00	29.836 
05:55	68.4	68.4	68.4	96	67.2	0	0	---	0.00	29.836 
06:00	68.4	68.4	68.4	96	67.2	0	0	---	0.00	29.845 
06:05	68.4	68.4	68.4	96	67.2	0	0	---	0.00	29.845 
06:10	68.4	68.4	68.4	96	67.2	0	0	---	0.00	29.845 
06:15	68.4	68.4	68.4	96	67.2	0	0	---	0.00	29.850 
06:20	68.4	68.4	68.4	96	67.2	0	0	---	0.00	29.850 
06:25	68.6	68.6	68.6	96	67.4	0	0	---	0.00	29.850 
06:30	68.6	68.6	68.6	96	67.4	0	0	---	0.00	29.849 
06:35	68.4	68.4	68.4	96	67.2	0	0	---	0.00	29.849 
06:40	68.4	68.4	68.4	96	67.2	0	0	---	0.00	29.849 
06:45	68.4	68.4	68.4	96	67.2	0	0	---	0.00	29.852 
06:50	68.4	68.4	68.4	96	67.2	0	0	---	0.00	29.852 
06:55	68.6	68.6	68.6	96	67.4	0	0	---	0.00	29.852 
07:00	68.9	68.9	68.9	96	67.7	0	0	---	0.00	29.853 
07:05	69.1	69.1	69.1	96	67.9	0	0	---	0.00	29.853 
07:10	69.3	69.3	69.3	96	68.1	0	0	---	0.00	29.853 
07:15	69.4	69.4	69.4	96	68.2	0	0	---	0.00	29.856 
07:20	69.6	69.6	69.6	96	68.4	0	0	---	0.00	29.856 
07:25	69.9	69.9	69.9	96	68.7	0	0	---	0.00	29.856 
07:30	70.1	70.1	70.1	96	68.9	0	0	---	0.00	29.860 
07:35	70.3	70.3	70.3	96	69.1	0	0	---	0.00	29.860 
07:40	70.4	70.4	70.4	96	69.2	0	0	---	0.00	29.860 
07:45	70.6	70.6	70.6	96	69.4	0	1	90	0.00	29.861 
07:50	70.8	70.8	70.8	96	69.6	0	0	---	0.00	29.861 
07:55	70.9	70.9	70.9	96	69.7	0	1	90	0.00	29.861 
08:00	71.1	71.1	71.1	96	69.9	0	1	90	0.00	29.863 
08:05	71.1	71.1	71.1	96	69.9	0	1	90	0.00	29.863 
08:10	71.1	71.1	71.1	96	69.9	0	3	90	0.00	29.863 
08:15	71.1	71.1	71.1	96	69.9	0	3	90	0.00	29.868 
08:20	70.9	70.9	70.9	96	69.7	0	1	90	0.00	29.868 
08:25	71.1	71.1	71.1	96	69.9	0	1	90	0.00	29.868 
08:30	71.3	71.3	71.3	96	70.1	0	1	90	0.00	29.875 
08:35	71.3	71.3	71.3	96	70.1	0	0	---	0.00	29.875 
08:40	71.3	71.3	71.3	96	70.1	0	1	90	0.00	29.875 
08:45	71.3	71.3	71.3	96	70.1	0	1	90	0.00	29.878 
08:50	71.5	71.5	71.5	96	70.3	0	1	90	0.00	29.878 
08:55	71.6	71.6	71.6	96	70.4	0	1	90	0.00	29.878 
09:00	71.6	71.6	71.6	96	70.4	0	1	90	0.00	29.879 
09:05	71.8	71.8	71.8	96	70.6	0	0	---	0.00	29.879 
09:10	72.0	72.0	72.0	97	71.1	0	1	90	0.00	29.879 
09:15	72.1	72.1	72.1	97	71.2	0	1	90	0.00	29.882 
09:20	72.3	72.3	72.3	96	71.1	0	0	---	0.00	29.882 
09:25	72.3	72.3	72.3	96	71.1	0	1	90	0.00	29.882 
09:30	72.5	72.5	72.5	96	71.3	0	2	90	0.00	29.879 
09:35	72.7	72.7	72.7	96	71.5	0	0	---	0.00	29.879 
09:40	72.8	72.8	72.8	96	71.6	0	0	---	0.00	29.879 
09:45	73.0	73.0	73.0	96	71.8	0	1	90	0.00	29.881 
09:50	73.2	73.2	73.2	96	72.0	0	2	90	0.00	29.881 
09:55	73.3	73.3	73.3	96	72.1	0	1	90	0.00	29.881 
10:00	73.5	73.5	73.5	96	72.3	0	2	90	0.00	29.881 
10:05	73.5	73.5	73.5	96	72.3	0	3	90	0.00	29.881 
10:10	73.7	73.7	73.7	96	72.5	0	2	90	0.00	29.881 
10:15	73.7	73.7	73.7	96	72.5	0	2	90	0.00	29.877 
10:20	73.9	73.9	73.9	95	72.4	1	3	90	0.00	29.877 
10:25	73.9	73.9	73.9	95	72.4	1	3	90	0.00	29.877 
10:30	74.0	74.0	74.0	95	72.5	0	3	90	0.00	29.869 
10:35	74.6	74.6	74.6	93	72.4	1	4	90	0.00	29.869 
10:40	74.4	74.4	74.4	93	72.2	2	4	90	0.00	29.869 
10:45	74.7	74.7	74.7	93	72.5	1	5	90	0.00	29.868 
10:50	74.9	74.9	74.9	92	72.4	1	3	90	0.00	29.868 
10:55	75.3	75.3	74.3	92	72.8	0	2	90	0.00	29.868 
11:00	76.0	76.0	75.9	91	73.2	0	2	90	0.00	29.875 
11:05	76.5	76.5	77.3	87	72.3	1	5	112	0.00	29.875 
11:10	76.8	76.8	77.9	87	72.6	1	3	112	0.00	29.875 
11:15	77.4	77.4	79.1	87	73.2	1	4	112	0.00	29.882 
11:20	78.1	78.1	80.6	85	73.2	1	5	112	0.00	29.882 
11:25	78.5	78.5	81.4	83	72.9	2	4	112	0.00	29.882 
11:30	78.6	78.6	81.6	84	73.3	1	3	112	0.00	29.877 
11:35	79.4	79.4	83.3	83	73.8	0	3	112	0.00	29.877 
11:40	80.3	80.3	85.0	81	73.9	1	4	112	0.00	29.877 
11:45	81.2	81.2	86.7	79	74.0	1	3	112	0.00	29.877 
11:50	81.4	81.4	86.7	77	73.5	2	4	112	0.00	29.877 
11:55	81.6	81.6	87.6	79	74.4	1	5	112	0.00	29.877 
12:00	81.8	81.8	87.8	78	74.2	0	3	112	0.00	29.882 
12:05	81.8	81.8	87.6	77	73.9	0	3	112	0.00	29.882 
12:10	82.0	82.0	87.8	76	73.7	1	3	112	0.00	29.882 
12:15	82.4	82.4	88.4	75	73.7	1	3	112	0.00	29.887 
12:20	82.6	82.6	88.9	75	73.8	1	2	112	0.00	29.887 
12:25	83.2	83.2	90.0	74	74.0	1	5	90	0.00	29.887 
12:30	83.2	83.2	89.7	73	73.6	1	3	90	0.00	29.884 
12:35	83.4	83.4	90.1	73	73.8	0	1	90	0.00	29.884 
12:40	84.0	84.0	91.5	73	74.4	0	0	---	0.00	29.884 
12:45	84.5	84.5	91.2	69	73.2	1	3	90	0.00	29.881 
12:50	84.5	84.5	91.6	70	73.6	2	5	90	0.00	29.881 
12:55	84.1	84.1	91.7	73	74.5	3	7	90	0.00	29.881 
13:00	83.4	83.4	90.1	73	73.8	1	5	90	0.00	29.874 
13:05	83.6	83.6	89.9	71	73.2	1	3	112	0.00	29.874 
13:10	84.5	84.5	91.9	71	74.0	1	3	135	0.00	29.874 
13:15	84.7	84.7	91.3	68	72.9	2	7	90	0.00	29.863 
13:20	85.1	85.1	91.1	65	72.0	1	4	68	0.00	29.863 
13:25	85.5	85.5	91.2	63	71.4	1	5	112	0.00	29.863 
13:30	85.9	85.9	92.8	65	72.7	1	6	45	0.00	29.860 
13:35	86.1	86.1	92.8	64	72.5	2	6	90	0.00	29.860 
13:40	86.1	86.1	93.2	65	72.9	1	4	90	0.00	29.860 
13:45	85.9	85.9	92.4	64	72.3	2	4	112	0.00	29.857 
13:50	86.3	86.3	93.2	64	72.7	1	6	135	0.00	29.857 
13:55	86.5	86.5	93.3	63	72.4	2	4	90	0.00	29.857 
14:00	86.5	86.5	92.5	61	71.4	3	6	112	0.00	29.854 
14:05	86.3	86.3	92.1	61	71.2	2	4	90	0.00	29.854 
14:10	86.3	86.3	92.4	62	71.7	2	6	90	0.00	29.854 
14:15	86.7	86.7	94.1	64	73.0	1	3	112	0.00	29.855 
14:20	87.0	87.0	93.5	61	71.9	2	5	112	0.00	29.855 
14:25	87.4	87.4	93.9	60	71.8	1	3	112	0.00	29.855 
14:30	87.8	87.8	94.7	60	72.1	1	2	112	0.00	29.852 
14:35	87.8	87.8	93.8	58	71.1	2	6	112	0.00	29.852 
14:40	87.6	87.6	93.4	58	71.0	2	6	90	0.00	29.852 
14:45	87.8	87.8	93.8	58	71.1	1	2	90	0.00	29.846 
14:50	88.2	88.2	94.7	58	71.5	1	3	45	0.00	29.846 
14:55	88.6	88.6	95.0	57	71.4	1	4	90	0.00	29.846 
15:00	88.6	88.6	95.0	57	71.4	1	5	90	0.00	29.841 
15:05	88.2	88.2	95.6	60	72.5	2	6	90	0.00	29.841 
15:10	88.4	88.4	95.1	58	71.7	1	4	112	0.00	29.841 
15:15	88.2	88.2	93.8	56	70.5	1	3	90	0.00	29.843 
15:20	88.0	88.0	94.3	58	71.3	1	5	68	0.00	29.843 
15:25	87.6	87.6	93.4	58	71.0	2	4	112	0.00	29.843 
15:30	87.4	87.4	93.9	60	71.8	2	4	90	0.00	29.838 
15:35	87.6	87.6	93.4	58	71.0	2	5	90	0.00	29.838 
15:40	88.0	88.0	93.4	56	70.3	2	6	112	0.00	29.838 
15:45	88.0	88.0	93.8	57	70.8	1	3	90	0.00	29.831 
15:50	88.6	88.6	94.6	56	70.9	1	4	112	0.00	29.831 
15:55	88.8	88.8	95.0	56	71.0	1	4	112	0.00	29.831 
16:00	88.6	88.6	94.6	56	70.9	2	5	90	0.00	29.828 
16:05	88.6	88.6	95.0	57	71.4	1	4	90	0.00	29.828 
16:10	88.6	88.6	94.6	56	70.9	1	3	90	0.00	29.828 
16:15	88.4	88.4	94.6	57	71.2	1	3	135	0.00	29.825 
16:20	88.4	88.4	92.5	52	68.5	2	6	90	0.00	29.825 
16:25	88.8	88.8	93.7	53	69.4	1	3	90	0.00	29.825 
16:30	89.3	89.3	94.2	52	69.3	1	3	90	0.00	29.816 
16:35	89.5	89.5	95.5	54	70.6	2	4	112	0.00	29.816 
16:40	89.9	89.9	96.3	54	71.0	0	3	112	0.00	29.816 
16:45	89.7	89.7	95.4	53	70.3	1	4	90	0.00	29.816 
16:50	89.0	89.0	94.5	54	70.2	1	3	45	0.00	29.816 
16:55	88.6	88.6	93.7	54	69.8	0	3	112	0.00	29.816 
17:00	88.6	88.6	94.1	55	70.3	0	2	112	0.00	29.812 
17:05	88.8	88.8	94.5	55	70.5	1	4	112	0.00	29.812 
17:10	89.0	89.0	94.5	54	70.2	2	5	90	0.00	29.812 
17:15	89.3	89.3	96.0	56	71.5	1	5	112	0.00	29.806 
17:20	89.5	89.5	93.2	49	67.8	1	4	112	0.00	29.806 
17:25	89.7	89.7	94.0	50	68.5	1	3	112	0.00	29.806 
17:30	89.7	89.7	93.6	49	68.0	1	3	112	0.00	29.798 
17:35	89.3	89.3	93.3	50	68.2	0	1	112	0.00	29.798 
17:40	89.5	89.5	95.0	53	70.1	1	3	112	0.00	29.798 
17:45	89.5	89.5	94.1	51	68.9	1	2	112	0.00	29.796 
17:50	89.7	89.7	94.0	50	68.5	1	3	112	0.00	29.796 
17:55	89.7	89.7	94.0	50	68.5	0	2	68	0.00	29.796 
18:00	89.5	89.5	94.1	51	68.9	1	4	68	0.00	29.796 
18:05	89.3	89.3	93.3	50	68.2	1	3	90	0.00	29.796 
18:10	89.0	89.0	92.8	50	67.9	0	2	68	0.00	29.796 
18:15	88.8	88.8	92.8	51	68.3	1	4	112	0.00	29.791 
18:20	88.6	88.6	92.1	50	67.5	1	3	112	0.00	29.791 
18:25	88.4	88.4	92.9	53	69.1	1	2	112	0.00	29.791 
18:30	88.2	88.2	91.8	51	67.7	1	3	135	0.00	29.794 
18:35	88.0	88.0	91.0	50	67.0	1	2	112	0.00	29.794 
18:40	87.8	87.8	91.1	51	67.4	0	2	112	0.00	29.794 
18:45	87.8	87.8	91.8	53	68.5	0	1	112	0.00	29.796 
18:50	87.4	87.4	91.1	53	68.1	0	1	112	0.00	29.796 
18:55	87.4	87.4	91.9	55	69.2	0	2	112	0.00	29.796 
19:00	87.2	87.2	91.1	54	68.5	1	3	90	0.00	29.798 
19:05	87.0	87.0	91.1	55	68.8	1	3	135	0.00	29.798 
19:10	87.0	87.0	91.5	56	69.4	0	1	135	0.00	29.798 
19:15	86.7	86.7	91.3	57	69.6	0	2	135	0.00	29.796 
19:20	86.5	86.5	91.0	57	69.4	0	2	135	0.00	29.796 
19:25	86.5	86.5	91.0	57	69.4	0	2	135	0.00	29.796 
19:30	86.3	86.3	90.6	57	69.2	0	2	112	0.00	29.801 
19:35	86.1	86.1	90.6	58	69.6	0	0	---	0.00	29.801 
19:40	85.9	85.9	89.9	57	68.9	0	3	135	0.00	29.801 
19:45	85.9	85.9	90.2	58	69.4	0	1	135	0.00	29.801 
19:50	85.7	85.7	89.9	58	69.2	0	3	112	0.00	29.801 
19:55	85.5	85.5	89.5	58	69.0	0	1	112	0.00	29.801 
20:00	85.5	85.5	89.5	58	69.0	0	1	112	0.00	29.799 
20:05	85.3	85.3	89.8	60	69.8	0	0	---	0.00	29.799 
20:10	85.1	85.1	89.8	61	70.1	0	0	---	0.00	29.799 
20:15	84.7	84.7	89.3	62	70.2	0	0	---	0.00	29.800 
20:20	84.3	84.3	88.6	62	69.8	0	1	112	0.00	29.800 
20:25	84.1	84.1	88.2	62	69.6	0	1	112	0.00	29.800 
20:30	83.8	83.8	88.0	63	69.8	0	0	---	0.00	29.797 
20:35	83.4	83.4	87.6	64	69.9	0	0	---	0.00	29.797 
20:40	83.0	83.0	87.1	65	70.0	0	0	---	0.00	29.797 
20:45	82.6	82.6	86.6	66	70.1	0	1	112	0.00	29.793 
20:50	82.4	82.4	86.5	67	70.3	0	0	---	0.00	29.793 
20:55	82.0	82.0	86.0	68	70.4	0	0	---	0.00	29.793 
21:00	81.6	81.6	85.3	68	70.0	0	0	---	0.00	29.793 
21:05	81.4	81.4	85.1	69	70.2	0	0	---	0.00	29.793 
21:10	80.9	80.9	84.5	70	70.2	0	0	---	0.00	29.793 
21:15	80.7	80.7	84.3	71	70.4	0	0	---	0.00	29.795 
21:20	80.3	80.3	83.9	73	70.8	0	0	---	0.00	29.795 
21:25	79.9	79.9	83.3	74	70.8	0	0	---	0.00	29.795 
21:30	79.8	79.8	83.1	74	70.8	0	0	---	0.00	29.791 
21:35	79.6	79.6	82.8	75	71.0	0	0	---	0.00	29.791 
21:40	79.4	79.4	82.5	75	70.8	0	0	---	0.00	29.791 
21:45	79.2	79.2	82.2	76	71.0	0	0	---	0.00	29.798 
21:50	79.0	79.0	82.0	77	71.2	0	0	---	0.00	29.798 
21:55	78.8	78.8	81.6	77	71.0	0	0	---	0.00	29.798 
22:00	78.5	78.5	81.1	78	71.1	0	0	---	0.00	29.799 
22:05	78.3	78.3	80.8	79	71.2	0	0	---	0.00	29.799 
22:10	78.1	78.1	80.5	80	71.4	0	0	---	0.00	29.799 
22:15	77.9	77.9	80.1	81	71.6	0	0	---	0.00	29.798 
22:20	77.7	77.7	79.8	81	71.4	0	0	---	0.00	29.798 
22:25	77.6	77.6	79.6	81	71.3	0	0	---	0.00	29.798 
22:30	77.4	77.4	79.2	82	71.5	0	0	---	0.00	29.802 
22:35	77.2	77.2	78.9	82	71.3	0	0	---	0.00	29.802 
22:40	77.0	77.0	78.5	83	71.4	0	0	---	0.00	29.802 
22:45	76.8	76.8	78.1	84	71.6	0	0	---	0.00	29.812 
22:50	76.5	76.5	77.5	84	71.3	0	0	---	0.00	29.812 
22:55	76.3	76.3	77.2	84	71.1	0	0	---	0.00	29.812 
23:00	76.0	76.0	76.6	85	71.2	0	0	---	0.00	29.807 
23:05	75.8	75.8	76.1	86	71.3	0	0	---	0.00	29.807 
23:10	75.6	75.6	75.6	87	71.4	0	0	---	0.00	29.807 
23:15	75.6	75.6	75.6	87	71.4	0	0	---	0.00	29.803 
23:20	75.4	75.4	75.3	87	71.2	0	0	---	0.00	29.803 
23:25	75.3	75.3	75.0	88	71.5	0	0	---	0.00	29.803 
23:30	75.3	75.3	75.0	88	71.5	0	0	---	0.00	29.799 
23:35	75.3	75.3	75.0	88	71.5	0	0	---	0.00	29.799 
23:40	75.4	75.4	75.3	87	71.2	0	0	---	0.00	29.799 
23:45	75.4	75.4	75.3	87	71.2	0	0	---	0.00	29.802 
23:50	75.4	75.4	75.3	87	71.2	0	0	---	0.00	29.802 
23:55	75.4	75.4	75.3	87	71.2	0	0	---	0.00	29.802 

CoCoRaHS
IN-AL-39
A2 Web Hosting
Creative Commons License
GoDaddy
search engine by freefind advanced

loaded 2018-11-14 00:26:35 • last modified 2010-11-18 10:43:29
Privacy PolicyDisclaimer
• wx.awcolley.com is powered by PmWiki v.2002016 •
• all content (unless otherwise noted) © 2018 A W Colley